UAOO

Kyzylorda Airport

Airport
ICAO code
UAOO
IATA Code
KZO
Summary
ICAO Region
APAC
ICAO Territory
Location

Kyzylorda,

Serving
Kyzylorda
Elevation
430 ft
Coordinates
44° 42' 44" N , 65° 35' 34" E
KCC
Airport BS
Bird Strike
Airport CFIT
Altimeter Temperature Error Correction
Airport WX
Cumulonimbus
Metar
UAOO 270830Z 18002MPS CAVOK 29/03 Q1016 NOSIG RMK QFE750/1000

Description

Regional airport serving the city of Kyzylorda (formerly Kzyl-Orda), the capital city of Kyzylorda province.

Climatology

Cold Semi-arid climate (Köppen climate classification BSk). - Hot, sometimes extremely hot summers and cold, sometimes very cold winters. Some snowfall during the winter. Areas featuring cold semi-arid climates are sometimes subject to major temperature swings during a 24 hour period.

Airport map

Aerial View

SKYbrary Partners:

Safety knowledge contributed by: